createdAt,value
2022-11-17T00:00:23.434Z,16.50
2022-11-17T00:02:50.746Z,16.50
2022-11-17T00:05:17.882Z,16.50
2022-11-17T00:07:45.852Z,16.50
2022-11-17T00:10:13.456Z,16.40
2022-11-17T00:12:59.186Z,16.50
2022-11-17T00:15:26.684Z,16.40
2022-11-17T00:18:12.716Z,16.40
2022-11-17T00:20:59.511Z,16.40
2022-11-17T00:23:46.723Z,16.40
2022-11-17T00:26:18.666Z,16.40
2022-11-17T00:28:45.891Z,16.40
2022-11-17T00:31:33.054Z,16.40
2022-11-17T00:34:06.864Z,16.30
2022-11-17T00:36:45.236Z,16.30
2022-11-17T00:39:14.043Z,16.30
2022-11-17T00:41:41.547Z,16.30
2022-11-17T00:44:09.064Z,16.30
2022-11-17T00:46:37.421Z,16.40
2022-11-17T00:49:05.877Z,16.40
2022-11-17T00:51:33.455Z,16.40
2022-11-17T00:54:00.728Z,16.40
2022-11-17T00:56:28.170Z,16.50
2022-11-17T00:58:55.627Z,16.50
2022-11-17T01:01:23.351Z,16.40
2022-11-17T01:03:50.508Z,16.40
2022-11-17T01:06:19.792Z,16.50
2022-11-17T01:08:47.370Z,16.40
2022-11-17T01:11:19.372Z,16.40
2022-11-17T01:13:47.767Z,16.40
2022-11-17T01:16:17.888Z,16.40
2022-11-17T01:18:46.870Z,16.40
2022-11-17T01:21:15.584Z,16.50
2022-11-17T01:23:44.616Z,16.40
2022-11-17T01:26:14.068Z,16.40
2022-11-17T01:28:42.137Z,16.40
2022-11-17T01:31:12.584Z,16.40
2022-11-17T01:33:40.677Z,16.40
2022-11-17T01:36:19.806Z,16.40
2022-11-17T01:38:46.968Z,16.40
2022-11-17T01:41:20.833Z,16.40
2022-11-17T01:43:49.392Z,16.40
2022-11-17T01:46:22.282Z,16.40
2022-11-17T01:48:51.561Z,16.40
2022-11-17T01:51:19.438Z,16.40
2022-11-17T01:53:50.204Z,16.40
2022-11-17T01:56:24.711Z,16.40
2022-11-17T01:59:00.416Z,16.40
2022-11-17T02:01:27.598Z,16.40
2022-11-17T02:03:55.030Z,16.40
2022-11-17T02:06:35.942Z,16.40
2022-11-17T02:09:04.065Z,16.40
2022-11-17T02:11:36.052Z,16.40
2022-11-17T02:14:05.206Z,16.40
2022-11-17T02:16:32.270Z,16.40
2022-11-17T02:18:59.408Z,16.40
2022-11-17T02:21:58.484Z,16.40
2022-11-17T02:24:31.398Z,16.40
2022-11-17T02:27:23.409Z,16.40
2022-11-17T02:30:02.328Z,16.40
2022-11-17T02:32:32.353Z,16.40
2022-11-17T02:35:11.407Z,16.40
2022-11-17T02:37:43.484Z,16.40
2022-11-17T02:40:13.512Z,16.40
2022-11-17T02:43:05.982Z,16.40
2022-11-17T02:45:42.936Z,16.40
2022-11-17T02:48:16.120Z,16.40
2022-11-17T02:50:46.000Z,16.40
2022-11-17T02:53:14.708Z,16.40
2022-11-17T02:55:52.552Z,16.40
2022-11-17T02:58:20.305Z,16.40
2022-11-17T03:01:06.184Z,16.40
2022-11-17T03:04:09.085Z,16.40
2022-11-17T03:06:51.654Z,16.40
2022-11-17T03:09:30.729Z,16.40
2022-11-17T03:12:09.031Z,16.40
2022-11-17T03:14:58.252Z,16.40
2022-11-17T03:17:41.122Z,16.40
2022-11-17T03:20:20.444Z,16.30
2022-11-17T03:23:13.684Z,16.40
2022-11-17T03:25:47.252Z,16.30
2022-11-17T03:28:16.924Z,16.30
2022-11-17T03:30:47.129Z,16.30
2022-11-17T03:33:18.802Z,16.30
2022-11-17T03:35:51.520Z,16.30
2022-11-17T03:38:22.597Z,16.30
2022-11-17T03:40:52.729Z,16.30
2022-11-17T03:43:21.492Z,16.30
2022-11-17T03:45:50.994Z,16.90
2022-11-17T03:48:34.626Z,16.30
2022-11-17T03:51:07.192Z,16.40
2022-11-17T03:53:35.729Z,16.40
2022-11-17T03:56:33.793Z,16.40
2022-11-17T03:59:24.929Z,16.40
2022-11-17T04:01:52.290Z,16.40
2022-11-17T04:04:21.281Z,16.50
2022-11-17T04:06:52.075Z,16.50
2022-11-17T04:09:24.196Z,16.40
2022-11-17T04:12:10.282Z,16.40
2022-11-17T04:14:56.101Z,16.40
2022-11-17T04:17:23.202Z,16.40
2022-11-17T04:19:50.237Z,16.40
2022-11-17T04:22:17.294Z,16.40
2022-11-17T04:24:44.341Z,16.40
2022-11-17T04:27:29.939Z,16.40
2022-11-17T04:29:56.985Z,16.30
2022-11-17T04:32:24.010Z,16.30
2022-11-17T04:34:51.113Z,16.30
2022-11-17T04:37:18.244Z,16.20
2022-11-17T04:39:45.777Z,16.30
2022-11-17T04:42:13.056Z,16.20
2022-11-17T04:44:40.245Z,16.20
2022-11-17T04:47:07.350Z,16.30
2022-11-17T04:49:34.508Z,16.30
2022-11-17T04:52:02.226Z,16.20
2022-11-17T04:54:29.364Z,16.30
2022-11-17T04:56:57.049Z,16.30
2022-11-17T04:59:24.422Z,16.40
2022-11-17T05:01:51.658Z,16.40
2022-11-17T05:04:39.357Z,16.40
2022-11-17T05:07:08.144Z,16.40
2022-11-17T05:09:35.414Z,16.40
2022-11-17T05:12:20.955Z,16.30
2022-11-17T05:14:49.073Z,16.40
2022-11-17T05:17:16.569Z,16.40
2022-11-17T05:19:48.061Z,16.40
2022-11-17T05:22:41.490Z,16.40
2022-11-17T05:25:09.476Z,16.40
2022-11-17T05:27:36.852Z,16.40
2022-11-17T05:30:06.683Z,16.40
2022-11-17T05:32:33.742Z,16.40
2022-11-17T05:35:00.932Z,16.40
2022-11-17T05:37:28.289Z,16.40
2022-11-17T05:39:55.341Z,16.30
2022-11-17T05:42:22.381Z,16.40
2022-11-17T05:44:49.562Z,16.30
2022-11-17T05:47:16.804Z,16.30
2022-11-17T05:49:43.829Z,16.30
2022-11-17T05:52:10.880Z,16.30
2022-11-17T05:54:37.918Z,16.30
2022-11-17T05:57:10.844Z,16.30
2022-11-17T05:59:46.373Z,16.40
2022-11-17T06:02:21.857Z,16.30
2022-11-17T06:04:50.237Z,16.30
2022-11-17T06:07:18.380Z,16.40
2022-11-17T06:09:46.365Z,16.30
2022-11-17T06:12:15.097Z,16.30
2022-11-17T06:14:42.774Z,16.40
2022-11-17T06:17:22.801Z,16.40
2022-11-17T06:20:19.555Z,16.40
2022-11-17T06:22:48.663Z,16.40
2022-11-17T06:25:18.369Z,16.40
2022-11-17T06:27:47.239Z,16.40
2022-11-17T06:30:14.309Z,16.40
2022-11-17T06:32:43.760Z,16.40
2022-11-17T06:35:13.374Z,16.40
2022-11-17T06:37:40.434Z,16.40
2022-11-17T06:40:08.406Z,16.40
2022-11-17T06:42:54.383Z,16.40
2022-11-17T06:45:21.438Z,16.40
2022-11-17T06:47:48.523Z,16.40
2022-11-17T06:50:15.893Z,16.40
2022-11-17T06:52:43.025Z,16.40
2022-11-17T06:55:10.261Z,16.40
2022-11-17T06:57:37.394Z,16.50
2022-11-17T07:00:06.267Z,16.40
2022-11-17T07:02:33.783Z,16.40
2022-11-17T07:05:00.884Z,16.40
2022-11-17T07:07:28.043Z,16.50
2022-11-17T07:09:55.279Z,16.50
2022-11-17T07:12:22.372Z,16.50
2022-11-17T07:14:49.500Z,16.50
2022-11-17T07:17:16.655Z,16.50
2022-11-17T07:19:43.802Z,16.50
2022-11-17T07:22:10.975Z,16.50
2022-11-17T07:24:38.148Z,16.50
2022-11-17T07:27:06.475Z,16.40
2022-11-17T07:29:33.627Z,16.40
2022-11-17T07:32:00.719Z,16.40
2022-11-17T07:34:27.814Z,16.40
2022-11-17T07:36:54.996Z,16.50
2022-11-17T07:39:22.246Z,16.50
2022-11-17T07:41:49.424Z,16.50
2022-11-17T07:44:16.514Z,16.50
2022-11-17T07:46:43.640Z,16.50
2022-11-17T07:49:10.792Z,16.50
2022-11-17T07:51:37.911Z,16.50
2022-11-17T07:54:05.149Z,16.50
2022-11-17T07:56:32.259Z,16.50
2022-11-17T07:58:59.379Z,16.50
2022-11-17T08:01:27.613Z,16.50
2022-11-17T08:03:55.106Z,16.50
2022-11-17T08:06:23.969Z,16.50
2022-11-17T08:08:51.707Z,16.60
2022-11-17T08:11:19.451Z,16.50
2022-11-17T08:13:46.995Z,16.50
2022-11-17T08:16:14.373Z,16.50
2022-11-17T08:18:43.112Z,16.50
2022-11-17T08:21:13.984Z,16.50
2022-11-17T08:23:42.035Z,16.50
2022-11-17T08:26:10.930Z,16.50
2022-11-17T08:28:38.686Z,16.50
2022-11-17T08:31:07.767Z,16.50
2022-11-17T08:33:35.887Z,16.50
2022-11-17T08:36:04.545Z,16.50
2022-11-17T08:38:31.742Z,16.50
2022-11-17T08:41:01.783Z,16.40
2022-11-17T08:43:29.012Z,16.50
2022-11-17T08:45:56.156Z,16.40
2022-11-17T08:48:23.703Z,16.40
2022-11-17T08:50:51.411Z,16.50
2022-11-17T08:53:21.376Z,16.50
2022-11-17T08:55:48.953Z,16.40
2022-11-17T08:58:16.124Z,16.40
2022-11-17T09:00:45.256Z,16.20
2022-11-17T09:03:12.563Z,16.10
2022-11-17T09:05:45.123Z,16.10
2022-11-17T09:08:43.834Z,16.10
2022-11-17T09:11:05.511Z,16.20
2022-11-17T09:13:33.647Z,16.20
2022-11-17T09:16:05.348Z,16.30
2022-11-17T09:18:33.080Z,16.10
2022-11-17T09:21:01.936Z,16.00
2022-11-17T09:23:29.868Z,15.80
2022-11-17T09:25:57.509Z,15.60
2022-11-17T09:28:25.983Z,15.30
2022-11-17T09:30:53.816Z,15.20
2022-11-17T09:33:20.952Z,15.00
2022-11-17T09:35:48.236Z,15.00
2022-11-17T09:38:15.378Z,14.90
2022-11-17T09:40:43.429Z,14.80
2022-11-17T09:43:26.918Z,14.80
2022-11-17T09:46:10.809Z,14.90
2022-11-17T09:49:15.880Z,15.10
2022-11-17T09:51:46.159Z,15.30
2022-11-17T09:54:26.317Z,15.50
2022-11-17T09:56:55.488Z,15.60
2022-11-17T09:59:27.552Z,15.80
2022-11-17T10:01:54.863Z,15.90
2022-11-17T10:04:30.097Z,16.00
2022-11-17T10:06:58.294Z,16.10
2022-11-17T10:09:45.188Z,16.20
2022-11-17T10:12:20.011Z,16.20
2022-11-17T10:14:49.628Z,16.30
2022-11-17T10:17:17.024Z,16.30
2022-11-17T10:19:45.438Z,16.40
2022-11-17T10:22:34.768Z,16.40
2022-11-17T10:25:01.960Z,16.40
2022-11-17T10:27:31.694Z,16.40
2022-11-17T10:30:03.577Z,16.40
2022-11-17T10:32:36.780Z,16.40
2022-11-17T10:35:24.583Z,16.40
2022-11-17T10:37:55.386Z,16.50
2022-11-17T10:40:26.461Z,16.40
2022-11-17T10:43:13.351Z,16.40
2022-11-17T10:45:55.038Z,16.40
2022-11-17T10:48:22.110Z,16.50
2022-11-17T10:51:02.847Z,16.50
2022-11-17T10:53:45.201Z,16.50
2022-11-17T10:56:18.926Z,16.50
2022-11-17T10:58:55.498Z,16.50
2022-11-17T11:01:35.143Z,16.50
2022-11-17T11:04:04.683Z,16.60
2022-11-17T11:06:33.719Z,16.60
2022-11-17T11:09:06.278Z,16.60
2022-11-17T11:11:49.797Z,16.70
2022-11-17T11:14:33.031Z,16.70
2022-11-17T11:17:01.183Z,16.70
2022-11-17T11:19:29.484Z,16.80
2022-11-17T11:22:16.886Z,16.80
2022-11-17T11:25:05.056Z,16.70
2022-11-17T11:27:41.104Z,16.70
2022-11-17T11:30:13.505Z,16.70
2022-11-17T11:32:49.779Z,16.70
2022-11-17T11:35:44.960Z,16.70
2022-11-17T11:38:44.813Z,16.70
2022-11-17T11:41:39.505Z,16.70
2022-11-17T11:44:25.778Z,16.70
2022-11-17T11:47:14.605Z,16.70
2022-11-17T11:50:03.183Z,16.70
2022-11-17T11:52:38.053Z,16.60
2022-11-17T11:55:35.897Z,16.60
2022-11-17T11:58:12.303Z,16.70
2022-11-17T12:00:41.916Z,16.60
2022-11-17T12:03:41.575Z,16.60
2022-11-17T12:06:42.597Z,16.60
2022-11-17T12:09:35.081Z,16.60
2022-11-17T12:12:08.962Z,16.60
2022-11-17T12:14:37.952Z,16.60
2022-11-17T12:17:23.213Z,16.60
2022-11-17T12:19:59.671Z,16.60
2022-11-17T12:22:29.471Z,16.60
2022-11-17T12:25:00.038Z,16.60
2022-11-17T12:27:36.394Z,16.60
2022-11-17T12:30:24.358Z,16.60
2022-11-17T12:32:53.427Z,16.60
2022-11-17T12:35:31.837Z,16.60
2022-11-17T12:38:17.032Z,16.60
2022-11-17T12:40:45.221Z,16.60
2022-11-17T12:43:15.396Z,16.60
2022-11-17T12:45:54.469Z,16.60
2022-11-17T12:48:47.042Z,16.60
2022-11-17T12:51:38.835Z,16.60
2022-11-17T12:54:26.773Z,16.60
2022-11-17T12:57:16.778Z,16.70
2022-11-17T12:59:56.909Z,16.60
2022-11-17T13:02:58.065Z,16.60
2022-11-17T13:05:27.982Z,16.60
2022-11-17T13:08:24.556Z,16.60
2022-11-17T13:11:02.334Z,16.60
2022-11-17T13:13:29.467Z,16.60
2022-11-17T13:15:59.150Z,16.60
2022-11-17T13:18:30.928Z,16.60
2022-11-17T13:20:58.814Z,16.60
2022-11-17T13:23:31.477Z,16.60
2022-11-17T13:26:25.963Z,16.60
2022-11-17T13:29:26.654Z,16.60
2022-11-17T13:32:28.383Z,16.60
2022-11-17T13:34:57.650Z,16.60
2022-11-17T13:37:27.446Z,16.70
2022-11-17T13:40:00.139Z,16.60
2022-11-17T13:42:30.900Z,16.70
2022-11-17T13:45:01.610Z,16.70
2022-11-17T13:47:48.683Z,16.60
2022-11-17T13:50:27.628Z,16.70
2022-11-17T13:53:23.534Z,16.60
2022-11-17T13:55:51.542Z,16.60
2022-11-17T13:58:40.987Z,16.60
2022-11-17T14:01:11.760Z,16.60
2022-11-17T14:03:40.802Z,16.60
2022-11-17T14:06:13.488Z,16.60
2022-11-17T14:08:42.956Z,16.70
2022-11-17T14:11:09.956Z,16.60
2022-11-17T14:13:39.750Z,16.60
2022-11-17T14:16:21.327Z,16.60
2022-11-17T14:19:23.697Z,16.60
2022-11-17T14:22:23.516Z,16.60
2022-11-17T14:24:54.769Z,16.70
2022-11-17T14:27:31.704Z,16.60
2022-11-17T14:29:58.965Z,16.60
2022-11-17T14:32:26.027Z,16.70
2022-11-17T14:34:53.189Z,16.70
2022-11-17T14:37:20.408Z,16.70
2022-11-17T14:39:47.520Z,16.70
2022-11-17T14:42:14.597Z,16.70
2022-11-17T14:44:41.665Z,16.70
2022-11-17T14:47:08.775Z,16.60
2022-11-17T14:49:35.840Z,16.60
2022-11-17T14:52:02.949Z,16.70
2022-11-17T14:54:30.091Z,16.60
2022-11-17T14:56:57.145Z,16.70
2022-11-17T14:59:24.191Z,16.70
2022-11-17T15:01:51.288Z,16.60
2022-11-17T15:04:49.030Z,16.70
2022-11-17T15:07:05.538Z,16.70
2022-11-17T15:09:33.060Z,16.70
2022-11-17T15:12:00.131Z,16.70
2022-11-17T15:14:27.355Z,16.70
2022-11-17T15:16:54.401Z,16.60
2022-11-17T15:19:21.673Z,16.60
2022-11-17T15:21:48.733Z,16.60
2022-11-17T15:24:15.932Z,16.70
2022-11-17T15:26:43.257Z,16.70
2022-11-17T15:29:17.615Z,16.90
2022-11-17T15:31:45.066Z,16.80
2022-11-17T15:34:18.568Z,16.80
2022-11-17T15:36:47.713Z,16.80
2022-11-17T15:39:17.441Z,16.80
2022-11-17T15:41:44.994Z,16.80
2022-11-17T15:44:12.102Z,16.80
2022-11-17T15:46:44.346Z,16.80
2022-11-17T15:49:14.627Z,16.80
2022-11-17T15:51:42.043Z,16.80
2022-11-17T15:54:18.186Z,16.80
2022-11-17T15:56:47.829Z,16.80
2022-11-17T15:59:15.295Z,16.90
2022-11-17T16:01:42.965Z,16.80
2022-11-17T16:04:12.930Z,16.80
2022-11-17T16:06:41.672Z,16.80
2022-11-17T16:09:09.519Z,16.90
2022-11-17T16:11:36.955Z,16.90
2022-11-17T16:14:04.723Z,16.90
2022-11-17T16:16:34.954Z,16.90
2022-11-17T16:19:02.405Z,16.90
2022-11-17T16:21:29.625Z,16.90
2022-11-17T16:23:57.890Z,16.90
2022-11-17T16:26:26.279Z,16.90
2022-11-17T16:28:58.427Z,16.90
2022-11-17T16:31:28.343Z,16.90
2022-11-17T16:34:00.370Z,16.70
2022-11-17T16:36:35.946Z,16.90
2022-11-17T16:39:05.833Z,16.90
2022-11-17T16:41:38.098Z,16.90
2022-11-17T16:44:11.673Z,16.90
2022-11-17T16:46:43.610Z,16.90
2022-11-17T16:49:13.691Z,16.80
2022-11-17T16:51:41.208Z,16.80
2022-11-17T16:54:12.108Z,16.80
2022-11-17T16:56:39.296Z,16.80
2022-11-17T16:59:06.512Z,16.80
2022-11-17T17:01:35.386Z,16.80
2022-11-17T17:04:08.310Z,16.80
2022-11-17T17:06:40.139Z,16.80
2022-11-17T17:09:09.468Z,16.80
2022-11-17T17:11:37.412Z,16.80
2022-11-17T17:14:06.764Z,16.80
2022-11-17T17:16:35.772Z,16.70
2022-11-17T17:19:04.836Z,16.70
2022-11-17T17:21:32.816Z,16.70
2022-11-17T17:24:00.147Z,16.70
2022-11-17T17:26:29.463Z,16.70
2022-11-17T17:28:59.098Z,16.70
2022-11-17T17:31:33.541Z,16.70
2022-11-17T17:34:00.918Z,16.70
2022-11-17T17:36:29.108Z,16.70
2022-11-17T17:38:58.707Z,16.60
2022-11-17T17:41:27.545Z,16.60
2022-11-17T17:44:04.695Z,16.60
2022-11-17T17:46:34.396Z,16.60
2022-11-17T17:49:01.491Z,16.60
2022-11-17T17:51:29.662Z,16.60
2022-11-17T17:54:01.900Z,16.60
2022-11-17T17:56:30.584Z,16.60
2022-11-17T17:58:58.069Z,16.60
2022-11-17T18:01:27.826Z,16.60
2022-11-17T18:04:04.326Z,16.60
2022-11-17T18:06:39.506Z,16.60
2022-11-17T18:09:08.505Z,16.60
2022-11-17T18:11:35.844Z,16.60
2022-11-17T18:14:04.006Z,16.70
2022-11-17T18:16:33.451Z,16.70
2022-11-17T18:19:06.321Z,16.70
2022-11-17T18:21:33.456Z,16.70
2022-11-17T18:24:02.028Z,16.70
2022-11-17T18:26:31.913Z,16.60
2022-11-17T18:29:05.037Z,16.70
2022-11-17T18:31:34.359Z,16.70
2022-11-17T18:34:07.587Z,16.70
2022-11-17T18:36:35.582Z,16.70
2022-11-17T18:39:03.522Z,16.60
2022-11-17T18:41:32.167Z,16.60
2022-11-17T18:44:02.489Z,16.60
2022-11-17T18:46:31.377Z,16.60
2022-11-17T18:48:59.222Z,16.60
2022-11-17T18:51:28.883Z,16.70
2022-11-17T18:53:58.611Z,16.60
2022-11-17T18:56:33.662Z,16.60
2022-11-17T18:59:01.635Z,16.60
2022-11-17T19:01:30.074Z,16.60
2022-11-17T19:04:02.076Z,16.60
2022-11-17T19:06:29.743Z,16.70
2022-11-17T19:08:58.774Z,16.60
2022-11-17T19:11:27.373Z,16.60
2022-11-17T19:13:54.480Z,16.60
2022-11-17T19:16:24.072Z,16.60
2022-11-17T19:18:53.362Z,16.70
2022-11-17T19:21:26.244Z,16.70
2022-11-17T19:23:54.921Z,16.60
2022-11-17T19:26:24.419Z,16.70
2022-11-17T19:28:58.545Z,16.70
2022-11-17T19:31:26.445Z,16.60
2022-11-17T19:33:54.427Z,16.60
2022-11-17T19:36:24.507Z,16.50
2022-11-17T19:38:53.137Z,16.50
2022-11-17T19:41:32.544Z,16.50
2022-11-17T19:44:01.464Z,16.50
2022-11-17T19:46:29.916Z,16.50
2022-11-17T19:48:58.008Z,16.50
2022-11-17T19:51:30.218Z,16.50
2022-11-17T19:54:01.904Z,16.50
2022-11-17T19:56:29.227Z,16.50
2022-11-17T19:58:56.781Z,16.50
2022-11-17T20:01:29.096Z,16.50
2022-11-17T20:03:57.429Z,16.50
2022-11-17T20:06:27.572Z,16.50
2022-11-17T20:08:57.327Z,16.50
2022-11-17T20:11:28.748Z,16.70
2022-11-17T20:13:56.478Z,16.60
2022-11-17T20:16:26.100Z,16.60
2022-11-17T20:19:00.092Z,16.60
2022-11-17T20:21:28.860Z,16.60
2022-11-17T20:23:57.281Z,16.50
2022-11-17T20:26:29.413Z,16.50
2022-11-17T20:28:57.573Z,16.60
2022-11-17T20:31:27.549Z,16.50
2022-11-17T20:33:57.478Z,16.50
2022-11-17T20:36:24.940Z,16.50
2022-11-17T20:38:57.287Z,16.60
2022-11-17T20:41:25.239Z,16.50
2022-11-17T20:43:54.668Z,16.50
2022-11-17T20:46:22.954Z,16.50
2022-11-17T20:48:50.744Z,16.50
2022-11-17T20:51:20.333Z,16.60
2022-11-17T20:53:47.409Z,16.60
2022-11-17T20:56:18.260Z,16.50
2022-11-17T20:58:45.691Z,16.50
2022-11-17T21:01:16.052Z,16.50
2022-11-17T21:03:43.698Z,16.50
2022-11-17T21:06:11.640Z,16.50
2022-11-17T21:08:40.241Z,16.60
2022-11-17T21:11:10.249Z,16.60
2022-11-17T21:13:37.986Z,16.60
2022-11-17T21:16:12.664Z,16.60
2022-11-17T21:18:45.786Z,16.60
2022-11-17T21:21:13.703Z,16.60
2022-11-17T21:23:42.355Z,16.60
2022-11-17T21:26:12.200Z,16.60
2022-11-17T21:28:39.604Z,16.70
2022-11-17T21:31:15.315Z,16.60
2022-11-17T21:33:43.842Z,16.60
2022-11-17T21:36:12.586Z,16.60
2022-11-17T21:38:40.364Z,16.60
2022-11-17T21:41:12.830Z,16.60
2022-11-17T21:43:41.642Z,16.60
2022-11-17T21:46:11.675Z,16.60
2022-11-17T21:48:39.268Z,16.60
2022-11-17T21:51:08.151Z,16.70
2022-11-17T21:53:35.211Z,16.60
2022-11-17T21:56:03.867Z,16.60
2022-11-17T21:58:31.531Z,16.60
2022-11-17T22:00:59.394Z,16.60
2022-11-17T22:03:27.494Z,16.70
2022-11-17T22:05:59.488Z,16.60
2022-11-17T22:08:29.199Z,16.60
2022-11-17T22:10:56.295Z,16.60
2022-11-17T22:13:23.359Z,16.70
2022-11-17T22:15:50.460Z,16.60
2022-11-17T22:18:17.532Z,16.70
2022-11-17T22:20:50.772Z,16.60
2022-11-17T22:23:17.828Z,16.70
2022-11-17T22:25:56.296Z,16.60
2022-11-17T22:28:23.757Z,16.60
2022-11-17T22:30:52.112Z,16.60
2022-11-17T22:33:20.842Z,16.60
2022-11-17T22:35:48.721Z,16.60
2022-11-17T22:38:16.048Z,16.60
2022-11-17T22:40:43.820Z,16.60
2022-11-17T22:43:14.926Z,16.60
2022-11-17T22:45:42.952Z,16.60
2022-11-17T22:48:10.060Z,16.70
2022-11-17T22:50:37.132Z,16.60
2022-11-17T22:53:04.265Z,16.60
2022-11-17T22:55:33.446Z,16.70
2022-11-17T22:58:00.647Z,16.70
2022-11-17T23:00:27.931Z,16.70
2022-11-17T23:02:55.135Z,16.70
2022-11-17T23:05:22.633Z,16.70
2022-11-17T23:07:49.769Z,16.70
2022-11-17T23:10:17.177Z,16.70
2022-11-17T23:12:44.244Z,16.60
2022-11-17T23:15:11.421Z,16.70
2022-11-17T23:17:38.503Z,16.70
2022-11-17T23:20:06.210Z,16.60
2022-11-17T23:22:33.965Z,16.60
2022-11-17T23:25:01.238Z,16.60
2022-11-17T23:27:28.353Z,16.60
2022-11-17T23:29:55.397Z,16.60
2022-11-17T23:32:22.554Z,16.60
2022-11-17T23:34:49.613Z,16.60
2022-11-17T23:37:16.901Z,16.60
2022-11-17T23:39:44.294Z,16.60
2022-11-17T23:42:11.345Z,16.70
2022-11-17T23:44:38.461Z,16.70
2022-11-17T23:47:05.585Z,16.70
2022-11-17T23:49:32.658Z,16.70
2022-11-17T23:51:59.743Z,16.70
2022-11-17T23:54:26.846Z,16.70
2022-11-17T23:56:53.909Z,16.70
2022-11-17T23:59:21.488Z,16.70
